createdAt,value
2018-08-09T00:00:16.499Z,21.99
2018-08-09T00:02:44.604Z,21.94
2018-08-09T00:05:12.688Z,21.98
2018-08-09T00:07:40.852Z,21.98
2018-08-09T00:10:08.982Z,22.00
2018-08-09T22:03:21.568Z,20.27
2018-08-09T22:05:55.092Z,20.19
2018-08-09T22:08:28.626Z,20.09
2018-08-09T22:11:02.695Z,20.18
2018-08-09T22:13:36.243Z,20.21
2018-08-09T22:16:10.511Z,20.17
2018-08-09T22:19:41.831Z,20.06
2018-08-09T22:22:11.467Z,19.92
2018-08-09T22:24:39.932Z,19.97
2018-08-09T22:27:08.527Z,19.95
2018-08-09T22:29:36.616Z,20.06
2018-08-09T22:32:04.710Z,20.16
2018-08-09T22:34:33.053Z,20.24
2018-08-09T22:37:01.292Z,20.29
2018-08-09T22:39:29.379Z,20.31
2018-08-09T22:41:57.481Z,20.44
2018-08-09T22:44:25.584Z,20.59
2018-08-09T22:46:53.667Z,20.69
2018-08-09T22:49:21.758Z,20.62
2018-08-09T22:51:49.864Z,20.36
2018-08-09T22:54:17.958Z,20.26
2018-08-09T22:56:46.063Z,20.02
2018-08-09T22:59:14.164Z,19.92
2018-08-09T23:01:42.278Z,19.89
2018-08-09T23:04:10.368Z,19.81
2018-08-09T23:06:38.495Z,19.79
2018-08-09T23:09:09.029Z,19.82
2018-08-09T23:11:37.479Z,19.73
2018-08-09T23:14:05.655Z,19.77
2018-08-09T23:16:33.753Z,19.75
2018-08-09T23:19:01.844Z,19.61
2018-08-09T23:21:30.790Z,19.51
2018-08-09T23:23:58.927Z,19.57
2018-08-09T23:26:27.043Z,19.48
2018-08-09T23:28:55.303Z,19.41
2018-08-09T23:31:23.418Z,19.39
2018-08-09T23:33:51.534Z,19.38
2018-08-09T23:36:19.623Z,19.38
2018-08-09T23:38:47.727Z,19.35
2018-08-09T23:41:16.403Z,19.34
2018-08-09T23:43:44.496Z,19.38
2018-08-09T23:46:12.580Z,19.34
2018-08-09T23:48:40.734Z,19.39
2018-08-09T23:51:08.827Z,19.31
2018-08-09T23:53:36.904Z,19.24
2018-08-09T23:56:04.989Z,19.17
2018-08-09T23:58:33.372Z,19.23
